sensor_id;sensor_type;location;lat;lon;timestamp;P1;durP1;ratioP1;P2;durP2;ratioP2
42670;SDS011;28283;55.426;37.756;2022-09-21T00:02:43;9.32;;;6.38;;
42670;SDS011;28283;55.426;37.756;2022-09-21T00:07:44;7.73;;;4.70;;
42670;SDS011;28283;55.426;37.756;2022-09-21T00:12:45;8.47;;;5.77;;
42670;SDS011;28283;55.426;37.756;2022-09-21T00:17:51;9.63;;;5.95;;
42670;SDS011;28283;55.426;37.756;2022-09-21T00:22:52;8.50;;;5.25;;
42670;SDS011;28283;55.426;37.756;2022-09-21T00:27:53;9.03;;;4.67;;
42670;SDS011;28283;55.426;37.756;2022-09-21T00:32:54;2.67;;;2.47;;
42670;SDS011;28283;55.426;37.756;2022-09-21T00:37:58;5.93;;;4.73;;
42670;SDS011;28283;55.426;37.756;2022-09-21T00:43:10;11.20;;;4.95;;
42670;SDS011;28283;55.426;37.756;2022-09-21T00:48:14;7.22;;;5.93;;
42670;SDS011;28283;55.426;37.756;2022-09-21T00:53:16;9.05;;;6.13;;
42670;SDS011;28283;55.426;37.756;2022-09-21T00:58:18;7.97;;;5.93;;
42670;SDS011;28283;55.426;37.756;2022-09-21T01:03:23;7.70;;;6.05;;
42670;SDS011;28283;55.426;37.756;2022-09-21T01:08:24;7.53;;;6.43;;
42670;SDS011;28283;55.426;37.756;2022-09-21T01:18:50;9.02;;;6.45;;
42670;SDS011;28283;55.426;37.756;2022-09-21T01:24:41;11.05;;;6.80;;
42670;SDS011;28283;55.426;37.756;2022-09-21T01:29:45;9.45;;;7.72;;
42670;SDS011;28283;55.426;37.756;2022-09-21T01:34:52;13.38;;;6.97;;
42670;SDS011;28283;55.426;37.756;2022-09-21T01:40:00;9.45;;;7.07;;
42670;SDS011;28283;55.426;37.756;2022-09-21T01:45:08;7.75;;;6.68;;
42670;SDS011;28283;55.426;37.756;2022-09-21T01:50:15;14.98;;;8.20;;
42670;SDS011;28283;55.426;37.756;2022-09-21T01:55:30;10.93;;;7.47;;
42670;SDS011;28283;55.426;37.756;2022-09-21T02:00:39;12.07;;;9.52;;
42670;SDS011;28283;55.426;37.756;2022-09-21T02:05:45;13.93;;;8.50;;
42670;SDS011;28283;55.426;37.756;2022-09-21T02:10:47;16.77;;;8.75;;
42670;SDS011;28283;55.426;37.756;2022-09-21T02:20:55;11.85;;;8.45;;
42670;SDS011;28283;55.426;37.756;2022-09-21T02:26:03;10.77;;;8.18;;
42670;SDS011;28283;55.426;37.756;2022-09-21T02:31:12;13.07;;;6.68;;
42670;SDS011;28283;55.426;37.756;2022-09-21T02:41:45;10.55;;;5.97;;
42670;SDS011;28283;55.426;37.756;2022-09-21T02:47:12;9.45;;;5.88;;
42670;SDS011;28283;55.426;37.756;2022-09-21T02:52:20;8.02;;;4.90;;
42670;SDS011;28283;55.426;37.756;2022-09-21T03:02:23;7.60;;;5.63;;
42670;SDS011;28283;55.426;37.756;2022-09-21T03:07:23;6.32;;;4.80;;
42670;SDS011;28283;55.426;37.756;2022-09-21T03:12:24;5.20;;;4.40;;
42670;SDS011;28283;55.426;37.756;2022-09-21T03:17:26;8.02;;;4.45;;
42670;SDS011;28283;55.426;37.756;2022-09-21T03:22:27;8.03;;;4.23;;
42670;SDS011;28283;55.426;37.756;2022-09-21T03:27:27;9.77;;;4.60;;
42670;SDS011;28283;55.426;37.756;2022-09-21T03:32:28;8.50;;;4.72;;
42670;SDS011;28283;55.426;37.756;2022-09-21T03:37:29;11.10;;;5.47;;
42670;SDS011;28283;55.426;37.756;2022-09-21T03:42:30;7.53;;;4.75;;
42670;SDS011;28283;55.426;37.756;2022-09-21T03:47:30;6.83;;;4.40;;
42670;SDS011;28283;55.426;37.756;2022-09-21T03:52:31;7.97;;;5.32;;
42670;SDS011;28283;55.426;37.756;2022-09-21T03:57:33;5.35;;;4.65;;
42670;SDS011;28283;55.426;37.756;2022-09-21T04:02:35;8.45;;;4.35;;
42670;SDS011;28283;55.426;37.756;2022-09-21T04:07:36;9.43;;;4.50;;
42670;SDS011;28283;55.426;37.756;2022-09-21T04:12:38;12.10;;;4.97;;
42670;SDS011;28283;55.426;37.756;2022-09-21T04:17:40;11.50;;;5.85;;
42670;SDS011;28283;55.426;37.756;2022-09-21T04:22:41;9.48;;;5.65;;
42670;SDS011;28283;55.426;37.756;2022-09-21T04:32:43;13.43;;;6.40;;
42670;SDS011;28283;55.426;37.756;2022-09-21T04:37:44;14.13;;;6.77;;
42670;SDS011;28283;55.426;37.756;2022-09-21T04:42:49;10.40;;;6.40;;
42670;SDS011;28283;55.426;37.756;2022-09-21T04:47:50;11.63;;;7.78;;
42670;SDS011;28283;55.426;37.756;2022-09-21T04:52:51;12.17;;;9.27;;
42670;SDS011;28283;55.426;37.756;2022-09-21T04:57:51;17.67;;;12.53;;
42670;SDS011;28283;55.426;37.756;2022-09-21T05:02:52;18.47;;;13.67;;
42670;SDS011;28283;55.426;37.756;2022-09-21T05:07:53;20.73;;;15.33;;
42670;SDS011;28283;55.426;37.756;2022-09-21T05:12:53;27.67;;;15.47;;
42670;SDS011;28283;55.426;37.756;2022-09-21T05:17:54;22.65;;;16.02;;
42670;SDS011;28283;55.426;37.756;2022-09-21T05:22:58;26.50;;;15.33;;
42670;SDS011;28283;55.426;37.756;2022-09-21T05:28:01;19.40;;;12.02;;
42670;SDS011;28283;55.426;37.756;2022-09-21T05:33:02;12.85;;;10.43;;
42670;SDS011;28283;55.426;37.756;2022-09-21T05:38:16;16.30;;;10.65;;
42670;SDS011;28283;55.426;37.756;2022-09-21T05:43:19;12.88;;;9.23;;
42670;SDS011;28283;55.426;37.756;2022-09-21T05:48:20;11.02;;;8.18;;
42670;SDS011;28283;55.426;37.756;2022-09-21T06:03:43;18.60;;;7.93;;
42670;SDS011;28283;55.426;37.756;2022-09-21T06:08:44;17.75;;;7.97;;
42670;SDS011;28283;55.426;37.756;2022-09-21T06:13:45;13.05;;;7.75;;
42670;SDS011;28283;55.426;37.756;2022-09-21T06:18:46;17.67;;;7.90;;
42670;SDS011;28283;55.426;37.756;2022-09-21T06:23:47;19.38;;;7.82;;
42670;SDS011;28283;55.426;37.756;2022-09-21T06:28:47;14.03;;;7.40;;
42670;SDS011;28283;55.426;37.756;2022-09-21T06:33:48;13.70;;;6.37;;
42670;SDS011;28283;55.426;37.756;2022-09-21T06:38:48;13.47;;;7.03;;
42670;SDS011;28283;55.426;37.756;2022-09-21T06:43:52;16.17;;;6.93;;
42670;SDS011;28283;55.426;37.756;2022-09-21T06:48:54;14.90;;;7.05;;
42670;SDS011;28283;55.426;37.756;2022-09-21T06:53:55;12.40;;;5.82;;
42670;SDS011;28283;55.426;37.756;2022-09-21T06:58:57;14.68;;;6.70;;
42670;SDS011;28283;55.426;37.756;2022-09-21T07:03:57;12.83;;;5.77;;
42670;SDS011;28283;55.426;37.756;2022-09-21T07:08:58;13.50;;;5.63;;
42670;SDS011;28283;55.426;37.756;2022-09-21T07:14:00;8.90;;;4.90;;
42670;SDS011;28283;55.426;37.756;2022-09-21T07:19:00;5.25;;;4.00;;
42670;SDS011;28283;55.426;37.756;2022-09-21T07:24:02;8.63;;;4.63;;
42670;SDS011;28283;55.426;37.756;2022-09-21T07:29:03;7.13;;;4.03;;
42670;SDS011;28283;55.426;37.756;2022-09-21T07:34:04;6.38;;;3.20;;
42670;SDS011;28283;55.426;37.756;2022-09-21T07:39:05;4.18;;;2.88;;
42670;SDS011;28283;55.426;37.756;2022-09-21T07:44:15;5.10;;;3.20;;
42670;SDS011;28283;55.426;37.756;2022-09-21T07:49:16;4.75;;;3.47;;
42670;SDS011;28283;55.426;37.756;2022-09-21T07:54:17;10.77;;;4.35;;
42670;SDS011;28283;55.426;37.756;2022-09-21T07:59:18;13.85;;;5.82;;
42670;SDS011;28283;55.426;37.756;2022-09-21T08:04:19;4.28;;;3.88;;
42670;SDS011;28283;55.426;37.756;2022-09-21T08:09:20;5.68;;;4.30;;
42670;SDS011;28283;55.426;37.756;2022-09-21T08:14:21;4.95;;;4.45;;
42670;SDS011;28283;55.426;37.756;2022-09-21T08:19:22;7.55;;;4.55;;
42670;SDS011;28283;55.426;37.756;2022-09-21T08:24:24;5.22;;;4.63;;
42670;SDS011;28283;55.426;37.756;2022-09-21T08:29:25;7.90;;;5.63;;
42670;SDS011;28283;55.426;37.756;2022-09-21T08:34:26;8.02;;;4.95;;
42670;SDS011;28283;55.426;37.756;2022-09-21T08:39:27;7.28;;;5.20;;
42670;SDS011;28283;55.426;37.756;2022-09-21T08:44:38;10.10;;;7.05;;
42670;SDS011;28283;55.426;37.756;2022-09-21T08:49:45;8.23;;;5.43;;
42670;SDS011;28283;55.426;37.756;2022-09-21T09:21:24;7.03;;;3.10;;
42670;SDS011;28283;55.426;37.756;2022-09-21T09:26:38;5.28;;;3.85;;
42670;SDS011;28283;55.426;37.756;2022-09-21T09:31:46;3.70;;;3.22;;
42670;SDS011;28283;55.426;37.756;2022-09-21T09:36:50;3.70;;;2.15;;
42670;SDS011;28283;55.426;37.756;2022-09-21T09:42:01;3.13;;;2.60;;
42670;SDS011;28283;55.426;37.756;2022-09-21T10:04:09;2.60;;;2.40;;
42670;SDS011;28283;55.426;37.756;2022-09-21T10:14:27;4.47;;;2.88;;
42670;SDS011;28283;55.426;37.756;2022-09-21T10:19:33;3.40;;;2.72;;
42670;SDS011;28283;55.426;37.756;2022-09-21T10:24:35;4.55;;;3.10;;
42670;SDS011;28283;55.426;37.756;2022-09-21T10:35:27;5.28;;;3.00;;
42670;SDS011;28283;55.426;37.756;2022-09-21T10:45:25;5.53;;;3.00;;
42670;SDS011;28283;55.426;37.756;2022-09-21T10:50:29;4.80;;;1.98;;
42670;SDS011;28283;55.426;37.756;2022-09-21T10:55:38;2.08;;;1.67;;
42670;SDS011;28283;55.426;37.756;2022-09-21T11:00:48;1.70;;;1.60;;
42670;SDS011;28283;55.426;37.756;2022-09-21T11:05:51;2.30;;;2.10;;
42670;SDS011;28283;55.426;37.756;2022-09-21T11:16:12;3.58;;;2.25;;
42670;SDS011;28283;55.426;37.756;2022-09-21T11:26:56;5.30;;;2.25;;
42670;SDS011;28283;55.426;37.756;2022-09-21T11:32:17;4.30;;;2.00;;
42670;SDS011;28283;55.426;37.756;2022-09-21T11:37:47;7.15;;;5.30;;
42670;SDS011;28283;55.426;37.756;2022-09-21T12:04:40;7.80;;;6.20;;
42670;SDS011;28283;55.426;37.756;2022-09-21T12:26:42;7.85;;;6.22;;
42670;SDS011;28283;55.426;37.756;2022-09-21T12:32:27;6.03;;;3.50;;
42670;SDS011;28283;55.426;37.756;2022-09-21T12:37:21;7.82;;;7.03;;
42670;SDS011;28283;55.426;37.756;2022-09-21T12:52:49;10.90;;;4.57;;
42670;SDS011;28283;55.426;37.756;2022-09-21T12:57:55;7.60;;;3.78;;
42670;SDS011;28283;55.426;37.756;2022-09-21T13:08:28;9.10;;;3.20;;
42670;SDS011;28283;55.426;37.756;2022-09-21T13:18:43;5.22;;;2.75;;
42670;SDS011;28283;55.426;37.756;2022-09-21T13:23:50;7.75;;;2.53;;
42670;SDS011;28283;55.426;37.756;2022-09-21T13:39:18;2.72;;;2.28;;
42670;SDS011;28283;55.426;37.756;2022-09-21T13:44:20;4.25;;;2.83;;
42670;SDS011;28283;55.426;37.756;2022-09-21T13:49:24;9.02;;;3.55;;
42670;SDS011;28283;55.426;37.756;2022-09-21T13:55:14;6.70;;;3.13;;
42670;SDS011;28283;55.426;37.756;2022-09-21T14:05:17;9.70;;;3.55;;
42670;SDS011;28283;55.426;37.756;2022-09-21T14:10:51;11.02;;;3.88;;
42670;SDS011;28283;55.426;37.756;2022-09-21T14:16:23;15.23;;;4.55;;
42670;SDS011;28283;55.426;37.756;2022-09-21T14:21:35;5.32;;;2.67;;
42670;SDS011;28283;55.426;37.756;2022-09-21T14:31:40;3.30;;;2.40;;
42670;SDS011;28283;55.426;37.756;2022-09-21T14:36:42;3.03;;;2.10;;
42670;SDS011;28283;55.426;37.756;2022-09-21T14:41:47;3.90;;;2.03;;
42670;SDS011;28283;55.426;37.756;2022-09-21T14:47:01;6.38;;;3.05;;
42670;SDS011;28283;55.426;37.756;2022-09-21T15:13:41;5.32;;;3.03;;
42670;SDS011;28283;55.426;37.756;2022-09-21T15:18:44;5.18;;;2.78;;
42670;SDS011;28283;55.426;37.756;2022-09-21T15:23:46;3.65;;;2.15;;
42670;SDS011;28283;55.426;37.756;2022-09-21T15:28:49;7.38;;;2.70;;
42670;SDS011;28283;55.426;37.756;2022-09-21T15:33:53;4.70;;;2.70;;
42670;SDS011;28283;55.426;37.756;2022-09-21T15:38:54;6.30;;;5.80;;
42670;SDS011;28283;55.426;37.756;2022-09-21T15:44:05;3.80;;;2.58;;
42670;SDS011;28283;55.426;37.756;2022-09-21T15:49:13;6.40;;;4.72;;
42670;SDS011;28283;55.426;37.756;2022-09-21T15:59:36;2.00;;;1.40;;
42670;SDS011;28283;55.426;37.756;2022-09-21T16:04:36;3.20;;;2.27;;
42670;SDS011;28283;55.426;37.756;2022-09-21T16:09:48;3.97;;;2.08;;
42670;SDS011;28283;55.426;37.756;2022-09-21T16:14:49;2.13;;;1.17;;
42670;SDS011;28283;55.426;37.756;2022-09-21T16:24:54;1.20;;;1.10;;
42670;SDS011;28283;55.426;37.756;2022-09-21T16:29:58;4.70;;;1.20;;
42670;SDS011;28283;55.426;37.756;2022-09-21T16:40:19;6.50;;;2.35;;
42670;SDS011;28283;55.426;37.756;2022-09-21T16:45:24;4.28;;;2.35;;
42670;SDS011;28283;55.426;37.756;2022-09-21T16:50:30;2.67;;;1.83;;
42670;SDS011;28283;55.426;37.756;2022-09-21T16:55:31;3.00;;;2.30;;
42670;SDS011;28283;55.426;37.756;2022-09-21T17:00:35;2.72;;;2.53;;
42670;SDS011;28283;55.426;37.756;2022-09-21T17:05:39;3.90;;;3.25;;
42670;SDS011;28283;55.426;37.756;2022-09-21T17:10:41;3.93;;;3.07;;
42670;SDS011;28283;55.426;37.756;2022-09-21T17:15:44;6.22;;;3.45;;
42670;SDS011;28283;55.426;37.756;2022-09-21T17:20:47;5.25;;;3.65;;
42670;SDS011;28283;55.426;37.756;2022-09-21T17:25:48;3.85;;;3.30;;
42670;SDS011;28283;55.426;37.756;2022-09-21T17:30:49;4.82;;;4.30;;
42670;SDS011;28283;55.426;37.756;2022-09-21T17:35:50;4.82;;;4.43;;
42670;SDS011;28283;55.426;37.756;2022-09-21T17:41:00;5.10;;;4.70;;
42670;SDS011;28283;55.426;37.756;2022-09-21T17:46:24;4.97;;;4.57;;
42670;SDS011;28283;55.426;37.756;2022-09-21T17:51:39;5.38;;;4.88;;
42670;SDS011;28283;55.426;37.756;2022-09-21T17:57:07;6.15;;;4.85;;
42670;SDS011;28283;55.426;37.756;2022-09-21T18:02:21;5.55;;;5.03;;
42670;SDS011;28283;55.426;37.756;2022-09-21T18:07:23;5.43;;;4.80;;
42670;SDS011;28283;55.426;37.756;2022-09-21T18:18:16;5.70;;;4.35;;
42670;SDS011;28283;55.426;37.756;2022-09-21T18:23:24;4.28;;;3.85;;
42670;SDS011;28283;55.426;37.756;2022-09-21T18:28:41;4.57;;;3.05;;
42670;SDS011;28283;55.426;37.756;2022-09-21T18:33:53;5.05;;;3.47;;
42670;SDS011;28283;55.426;37.756;2022-09-21T18:44:24;4.50;;;2.97;;
42670;SDS011;28283;55.426;37.756;2022-09-21T18:54:40;4.85;;;2.97;;
42670;SDS011;28283;55.426;37.756;2022-09-21T18:59:41;11.32;;;8.00;;
42670;SDS011;28283;55.426;37.756;2022-09-21T19:09:46;7.78;;;4.43;;
42670;SDS011;28283;55.426;37.756;2022-09-21T19:25:50;7.28;;;4.15;;
42670;SDS011;28283;55.426;37.756;2022-09-21T19:36:03;8.57;;;4.30;;
42670;SDS011;28283;55.426;37.756;2022-09-21T19:46:45;9.40;;;5.72;;
42670;SDS011;28283;55.426;37.756;2022-09-21T19:51:56;5.43;;;4.32;;
42670;SDS011;28283;55.426;37.756;2022-09-21T19:57:35;5.85;;;4.47;;
42670;SDS011;28283;55.426;37.756;2022-09-21T20:13:18;6.35;;;4.50;;
42670;SDS011;28283;55.426;37.756;2022-09-21T20:18:35;5.75;;;4.57;;
42670;SDS011;28283;55.426;37.756;2022-09-21T20:23:41;9.18;;;6.25;;
42670;SDS011;28283;55.426;37.756;2022-09-21T20:28:42;5.97;;;4.78;;
42670;SDS011;28283;55.426;37.756;2022-09-21T20:33:43;7.82;;;6.00;;
42670;SDS011;28283;55.426;37.756;2022-09-21T20:38:44;6.53;;;5.93;;
42670;SDS011;28283;55.426;37.756;2022-09-21T20:43:44;7.60;;;6.10;;
42670;SDS011;28283;55.426;37.756;2022-09-21T20:48:45;5.47;;;4.97;;
42670;SDS011;28283;55.426;37.756;2022-09-21T20:53:45;6.37;;;5.20;;
42670;SDS011;28283;55.426;37.756;2022-09-21T20:58:46;5.33;;;4.83;;
42670;SDS011;28283;55.426;37.756;2022-09-21T21:03:47;5.50;;;4.20;;
42670;SDS011;28283;55.426;37.756;2022-09-21T21:08:48;5.30;;;4.70;;
42670;SDS011;28283;55.426;37.756;2022-09-21T21:13:48;7.47;;;4.90;;
42670;SDS011;28283;55.426;37.756;2022-09-21T21:18:49;7.50;;;4.77;;
42670;SDS011;28283;55.426;37.756;2022-09-21T21:23:50;4.72;;;4.22;;
42670;SDS011;28283;55.426;37.756;2022-09-21T21:29:09;5.07;;;4.68;;
42670;SDS011;28283;55.426;37.756;2022-09-21T21:34:10;7.90;;;4.07;;
42670;SDS011;28283;55.426;37.756;2022-09-21T21:39:11;4.47;;;4.07;;
42670;SDS011;28283;55.426;37.756;2022-09-21T21:44:12;6.72;;;4.65;;
42670;SDS011;28283;55.426;37.756;2022-09-21T21:49:15;5.32;;;4.82;;
42670;SDS011;28283;55.426;37.756;2022-09-21T21:54:22;5.45;;;4.95;;
42670;SDS011;28283;55.426;37.756;2022-09-21T21:59:27;5.35;;;4.63;;
42670;SDS011;28283;55.426;37.756;2022-09-21T22:04:28;7.10;;;4.50;;
42670;SDS011;28283;55.426;37.756;2022-09-21T22:09:28;5.40;;;4.73;;
42670;SDS011;28283;55.426;37.756;2022-09-21T22:14:29;5.57;;;4.87;;
42670;SDS011;28283;55.426;37.756;2022-09-21T22:19:33;5.07;;;4.68;;
42670;SDS011;28283;55.426;37.756;2022-09-21T22:24:34;6.10;;;5.50;;
42670;SDS011;28283;55.426;37.756;2022-09-21T22:29:35;7.60;;;5.70;;
42670;SDS011;28283;55.426;37.756;2022-09-21T22:34:36;6.80;;;6.22;;
42670;SDS011;28283;55.426;37.756;2022-09-21T22:39:39;7.20;;;6.50;;
42670;SDS011;28283;55.426;37.756;2022-09-21T22:44:42;6.45;;;5.85;;
42670;SDS011;28283;55.426;37.756;2022-09-21T22:49:43;9.00;;;7.47;;
42670;SDS011;28283;55.426;37.756;2022-09-21T22:54:54;13.67;;;8.10;;
42670;SDS011;28283;55.426;37.756;2022-09-21T22:59:55;7.93;;;7.15;;
42670;SDS011;28283;55.426;37.756;2022-09-21T23:04:56;9.87;;;8.80;;
42670;SDS011;28283;55.426;37.756;2022-09-21T23:09:56;10.37;;;9.27;;
42670;SDS011;28283;55.426;37.756;2022-09-21T23:15:45;10.05;;;9.05;;
42670;SDS011;28283;55.426;37.756;2022-09-21T23:20:56;11.50;;;9.95;;
42670;SDS011;28283;55.426;37.756;2022-09-21T23:26:06;10.35;;;9.35;;
42670;SDS011;28283;55.426;37.756;2022-09-21T23:31:29;11.23;;;9.05;;
42670;SDS011;28283;55.426;37.756;2022-09-21T23:41:43;10.93;;;9.23;;
42670;SDS011;28283;55.426;37.756;2022-09-21T23:46:56;12.93;;;10.82;;
42670;SDS011;28283;55.426;37.756;2022-09-21T23:52:00;13.80;;;10.50;;
42670;SDS011;28283;55.426;37.756;2022-09-21T23:57:01;11.88;;;9.82;;
